sensor_id;sensor_type;location;lat;lon;timestamp;temperature;humidity
30379;DHT22;17168;49.164;9.060;2023-03-23T00:00:36;15.80;60.70
30379;DHT22;17168;49.164;9.060;2023-03-23T00:03:08;15.70;60.60
30379;DHT22;17168;49.164;9.060;2023-03-23T00:05:40;15.70;60.70
30379;DHT22;17168;49.164;9.060;2023-03-23T00:08:21;15.70;60.70
30379;DHT22;17168;49.164;9.060;2023-03-23T00:10:54;15.70;60.80
30379;DHT22;17168;49.164;9.060;2023-03-23T00:13:33;15.60;60.80
30379;DHT22;17168;49.164;9.060;2023-03-23T00:16:06;15.60;60.80
30379;DHT22;17168;49.164;9.060;2023-03-23T00:18:49;15.60;60.90
30379;DHT22;17168;49.164;9.060;2023-03-23T00:21:26;15.60;60.90
30379;DHT22;17168;49.164;9.060;2023-03-23T00:24:08;15.50;61.00
30379;DHT22;17168;49.164;9.060;2023-03-23T00:26:41;15.50;61.00
30379;DHT22;17168;49.164;9.060;2023-03-23T00:29:23;15.50;61.10
30379;DHT22;17168;49.164;9.060;2023-03-23T00:31:55;15.50;61.20
30379;DHT22;17168;49.164;9.060;2023-03-23T00:34:28;15.50;61.20
30379;DHT22;17168;49.164;9.060;2023-03-23T00:37:04;15.50;61.10
30379;DHT22;17168;49.164;9.060;2023-03-23T00:39:38;15.50;61.10
30379;DHT22;17168;49.164;9.060;2023-03-23T00:42:10;15.50;61.20
30379;DHT22;17168;49.164;9.060;2023-03-23T00:44:45;15.50;61.10
30379;DHT22;17168;49.164;9.060;2023-03-23T00:47:17;15.50;61.10
30379;DHT22;17168;49.164;9.060;2023-03-23T00:49:49;15.50;61.10
30379;DHT22;17168;49.164;9.060;2023-03-23T00:52:24;15.60;61.20
30379;DHT22;17168;49.164;9.060;2023-03-23T00:54:56;15.50;61.10
30379;DHT22;17168;49.164;9.060;2023-03-23T00:57:28;15.60;61.10
30379;DHT22;17168;49.164;9.060;2023-03-23T01:00:04;15.50;60.90
30379;DHT22;17168;49.164;9.060;2023-03-23T01:02:45;15.50;61.00
30379;DHT22;17168;49.164;9.060;2023-03-23T01:05:18;15.50;60.90
30379;DHT22;17168;49.164;9.060;2023-03-23T01:07:50;15.60;60.90
30379;DHT22;17168;49.164;9.060;2023-03-23T01:10:22;15.60;60.90
30379;DHT22;17168;49.164;9.060;2023-03-23T01:12:56;15.60;60.90
30379;DHT22;17168;49.164;9.060;2023-03-23T01:15:31;15.60;61.00
30379;DHT22;17168;49.164;9.060;2023-03-23T01:18:04;15.60;61.10
30379;DHT22;17168;49.164;9.060;2023-03-23T01:20:37;15.60;61.20
30379;DHT22;17168;49.164;9.060;2023-03-23T01:23:09;15.60;61.30
30379;DHT22;17168;49.164;9.060;2023-03-23T01:25:41;15.60;61.50
30379;DHT22;17168;49.164;9.060;2023-03-23T01:28:14;15.60;61.50
30379;DHT22;17168;49.164;9.060;2023-03-23T01:30:49;15.60;61.60
30379;DHT22;17168;49.164;9.060;2023-03-23T01:33:21;15.60;61.60
30379;DHT22;17168;49.164;9.060;2023-03-23T01:35:53;15.50;61.50
30379;DHT22;17168;49.164;9.060;2023-03-23T01:38:26;15.60;61.60
30379;DHT22;17168;49.164;9.060;2023-03-23T01:40:59;15.60;61.80
30379;DHT22;17168;49.164;9.060;2023-03-23T01:43:31;15.60;61.80
30379;DHT22;17168;49.164;9.060;2023-03-23T01:46:06;15.50;61.80
30379;DHT22;17168;49.164;9.060;2023-03-23T01:48:38;15.50;61.90
30379;DHT22;17168;49.164;9.060;2023-03-23T01:51:13;15.50;62.00
30379;DHT22;17168;49.164;9.060;2023-03-23T01:53:52;15.50;62.10
30379;DHT22;17168;49.164;9.060;2023-03-23T01:56:40;15.50;62.20
30379;DHT22;17168;49.164;9.060;2023-03-23T01:59:13;15.50;62.20
30379;DHT22;17168;49.164;9.060;2023-03-23T02:01:50;15.40;62.10
30379;DHT22;17168;49.164;9.060;2023-03-23T02:04:25;15.40;62.20
30379;DHT22;17168;49.164;9.060;2023-03-23T02:06:57;15.40;62.20
30379;DHT22;17168;49.164;9.060;2023-03-23T02:09:30;15.40;62.20
30379;DHT22;17168;49.164;9.060;2023-03-23T02:12:03;15.40;62.20
30379;DHT22;17168;49.164;9.060;2023-03-23T02:14:36;15.40;62.30
30379;DHT22;17168;49.164;9.060;2023-03-23T02:17:16;15.40;62.40
30379;DHT22;17168;49.164;9.060;2023-03-23T02:20:06;15.40;62.60
30379;DHT22;17168;49.164;9.060;2023-03-23T02:22:56;15.30;62.60
30379;DHT22;17168;49.164;9.060;2023-03-23T02:25:52;15.30;62.70
30379;DHT22;17168;49.164;9.060;2023-03-23T02:28:51;15.30;62.80
30379;DHT22;17168;49.164;9.060;2023-03-23T02:31:47;15.30;62.90
30379;DHT22;17168;49.164;9.060;2023-03-23T02:34:27;15.30;62.90
30379;DHT22;17168;49.164;9.060;2023-03-23T02:37:04;15.30;62.90
30379;DHT22;17168;49.164;9.060;2023-03-23T02:39:42;15.30;62.90
30379;DHT22;17168;49.164;9.060;2023-03-23T02:42:18;15.20;63.00
30379;DHT22;17168;49.164;9.060;2023-03-23T02:44:53;15.20;63.00
30379;DHT22;17168;49.164;9.060;2023-03-23T02:47:27;15.30;63.10
30379;DHT22;17168;49.164;9.060;2023-03-23T02:50:05;15.20;63.10
30379;DHT22;17168;49.164;9.060;2023-03-23T02:52:41;15.20;63.20
30379;DHT22;17168;49.164;9.060;2023-03-23T02:55:14;15.20;63.20
30379;DHT22;17168;49.164;9.060;2023-03-23T02:57:48;15.30;63.30
30379;DHT22;17168;49.164;9.060;2023-03-23T03:00:22;15.30;63.30
30379;DHT22;17168;49.164;9.060;2023-03-23T03:02:54;15.30;63.40
30379;DHT22;17168;49.164;9.060;2023-03-23T03:05:36;15.30;63.40
30379;DHT22;17168;49.164;9.060;2023-03-23T03:08:15;15.30;63.40
30379;DHT22;17168;49.164;9.060;2023-03-23T03:10:54;15.40;63.50
30379;DHT22;17168;49.164;9.060;2023-03-23T03:13:33;15.30;63.50
30379;DHT22;17168;49.164;9.060;2023-03-23T03:16:18;15.30;63.60
30379;DHT22;17168;49.164;9.060;2023-03-23T03:18:56;15.30;63.80
30379;DHT22;17168;49.164;9.060;2023-03-23T03:21:34;15.30;63.90
30379;DHT22;17168;49.164;9.060;2023-03-23T03:24:08;15.30;63.80
30379;DHT22;17168;49.164;9.060;2023-03-23T03:26:45;15.30;63.80
30379;DHT22;17168;49.164;9.060;2023-03-23T03:29:23;15.30;63.80
30379;DHT22;17168;49.164;9.060;2023-03-23T03:31:58;15.30;63.90
30379;DHT22;17168;49.164;9.060;2023-03-23T03:34:33;15.30;63.80
30379;DHT22;17168;49.164;9.060;2023-03-23T03:37:08;15.30;63.80
30379;DHT22;17168;49.164;9.060;2023-03-23T03:39:44;15.30;63.80
30379;DHT22;17168;49.164;9.060;2023-03-23T03:42:16;15.30;63.80
30379;DHT22;17168;49.164;9.060;2023-03-23T03:44:48;15.40;63.90
30379;DHT22;17168;49.164;9.060;2023-03-23T03:47:21;15.40;63.90
30379;DHT22;17168;49.164;9.060;2023-03-23T03:49:53;15.40;64.00
30379;DHT22;17168;49.164;9.060;2023-03-23T03:52:28;15.30;64.00
30379;DHT22;17168;49.164;9.060;2023-03-23T03:55:01;15.40;64.00
30379;DHT22;17168;49.164;9.060;2023-03-23T03:57:33;15.40;64.10
30379;DHT22;17168;49.164;9.060;2023-03-23T04:00:08;15.30;64.10
30379;DHT22;17168;49.164;9.060;2023-03-23T04:02:48;15.40;64.20
30379;DHT22;17168;49.164;9.060;2023-03-23T04:05:26;15.40;64.20
30379;DHT22;17168;49.164;9.060;2023-03-23T04:08:03;15.40;64.20
30379;DHT22;17168;49.164;9.060;2023-03-23T04:10:40;15.30;64.20
30379;DHT22;17168;49.164;9.060;2023-03-23T04:13:12;15.40;64.20
30379;DHT22;17168;49.164;9.060;2023-03-23T04:15:45;15.30;64.20
30379;DHT22;17168;49.164;9.060;2023-03-23T04:18:37;15.40;64.30
30379;DHT22;17168;49.164;9.060;2023-03-23T04:21:11;15.40;64.30
30379;DHT22;17168;49.164;9.060;2023-03-23T04:23:45;15.40;64.30
30379;DHT22;17168;49.164;9.060;2023-03-23T04:26:19;15.40;64.30
30379;DHT22;17168;49.164;9.060;2023-03-23T04:28:52;15.40;64.30
30379;DHT22;17168;49.164;9.060;2023-03-23T04:31:24;15.40;64.30
30379;DHT22;17168;49.164;9.060;2023-03-23T04:33:57;15.40;64.30
30379;DHT22;17168;49.164;9.060;2023-03-23T04:36:32;15.40;64.30
30379;DHT22;17168;49.164;9.060;2023-03-23T04:39:28;15.40;64.30
30379;DHT22;17168;49.164;9.060;2023-03-23T04:42:00;15.40;64.30
30379;DHT22;17168;49.164;9.060;2023-03-23T04:44:33;15.40;64.30
30379;DHT22;17168;49.164;9.060;2023-03-23T04:47:05;15.50;64.40
30379;DHT22;17168;49.164;9.060;2023-03-23T04:49:41;15.50;64.40
30379;DHT22;17168;49.164;9.060;2023-03-23T04:52:13;15.50;65.00
30379;DHT22;17168;49.164;9.060;2023-03-23T04:54:48;15.40;64.50
30379;DHT22;17168;49.164;9.060;2023-03-23T04:57:21;15.40;64.50
30379;DHT22;17168;49.164;9.060;2023-03-23T04:59:53;15.40;64.60
30379;DHT22;17168;49.164;9.060;2023-03-23T05:02:26;15.40;64.60
30379;DHT22;17168;49.164;9.060;2023-03-23T05:05:02;15.40;64.60
30379;DHT22;17168;49.164;9.060;2023-03-23T05:07:34;15.40;64.50
30379;DHT22;17168;49.164;9.060;2023-03-23T05:10:11;15.50;64.60
30379;DHT22;17168;49.164;9.060;2023-03-23T05:12:55;15.50;64.60
30379;DHT22;17168;49.164;9.060;2023-03-23T05:15:27;15.50;64.60
30379;DHT22;17168;49.164;9.060;2023-03-23T05:17:59;15.50;64.60
30379;DHT22;17168;49.164;9.060;2023-03-23T05:20:31;15.40;64.50
30379;DHT22;17168;49.164;9.060;2023-03-23T05:23:05;15.50;64.70
30379;DHT22;17168;49.164;9.060;2023-03-23T05:25:40;15.40;64.80
30379;DHT22;17168;49.164;9.060;2023-03-23T05:28:12;15.40;65.40
30379;DHT22;17168;49.164;9.060;2023-03-23T05:30:44;15.40;64.90
30379;DHT22;17168;49.164;9.060;2023-03-23T05:33:16;15.40;65.00
30379;DHT22;17168;49.164;9.060;2023-03-23T05:35:49;15.40;64.90
30379;DHT22;17168;49.164;9.060;2023-03-23T05:38:22;15.40;64.90
30379;DHT22;17168;49.164;9.060;2023-03-23T05:40:58;15.40;64.90
30379;DHT22;17168;49.164;9.060;2023-03-23T05:43:32;15.40;64.90
30379;DHT22;17168;49.164;9.060;2023-03-23T05:46:05;15.40;65.00
30379;DHT22;17168;49.164;9.060;2023-03-23T05:48:37;15.40;65.00
30379;DHT22;17168;49.164;9.060;2023-03-23T05:51:10;15.40;65.00
30379;DHT22;17168;49.164;9.060;2023-03-23T05:53:44;15.40;65.00
30379;DHT22;17168;49.164;9.060;2023-03-23T06:19:17;15.40;66.10
30379;DHT22;17168;49.164;9.060;2023-03-23T06:21:49;15.40;66.20
30379;DHT22;17168;49.164;9.060;2023-03-23T06:24:21;15.40;66.30
30379;DHT22;17168;49.164;9.060;2023-03-23T06:27:00;15.40;66.50
30379;DHT22;17168;49.164;9.060;2023-03-23T06:29:32;15.40;66.60
30379;DHT22;17168;49.164;9.060;2023-03-23T06:32:05;15.40;66.70
30379;DHT22;17168;49.164;9.060;2023-03-23T06:34:41;15.30;66.90
30379;DHT22;17168;49.164;9.060;2023-03-23T06:37:16;15.40;67.20
30379;DHT22;17168;49.164;9.060;2023-03-23T06:39:55;15.30;67.30
30379;DHT22;17168;49.164;9.060;2023-03-23T06:42:27;15.30;67.50
30379;DHT22;17168;49.164;9.060;2023-03-23T06:44:59;15.30;67.60
30379;DHT22;17168;49.164;9.060;2023-03-23T06:47:33;15.30;67.80
30379;DHT22;17168;49.164;9.060;2023-03-23T06:50:09;15.30;67.90
30379;DHT22;17168;49.164;9.060;2023-03-23T06:52:44;15.30;68.10
30379;DHT22;17168;49.164;9.060;2023-03-23T06:55:21;15.30;68.30
30379;DHT22;17168;49.164;9.060;2023-03-23T06:57:54;15.30;68.30
30379;DHT22;17168;49.164;9.060;2023-03-23T07:00:26;15.30;68.50
30379;DHT22;17168;49.164;9.060;2023-03-23T07:02:58;15.30;68.60
30379;DHT22;17168;49.164;9.060;2023-03-23T07:05:34;15.30;68.70
30379;DHT22;17168;49.164;9.060;2023-03-23T07:08:06;15.30;68.80
30379;DHT22;17168;49.164;9.060;2023-03-23T07:10:39;15.30;68.90
30379;DHT22;17168;49.164;9.060;2023-03-23T07:13:11;15.30;69.60
30379;DHT22;17168;49.164;9.060;2023-03-23T07:15:43;15.20;69.20
30379;DHT22;17168;49.164;9.060;2023-03-23T07:18:16;15.20;69.40
30379;DHT22;17168;49.164;9.060;2023-03-23T07:20:52;15.30;69.60
30379;DHT22;17168;49.164;9.060;2023-03-23T07:23:24;15.30;69.80
30379;DHT22;17168;49.164;9.060;2023-03-23T07:25:56;15.30;69.80
30379;DHT22;17168;49.164;9.060;2023-03-23T07:28:29;15.30;69.80
30379;DHT22;17168;49.164;9.060;2023-03-23T07:31:02;15.30;70.10
30379;DHT22;17168;49.164;9.060;2023-03-23T07:33:34;15.30;70.20
30379;DHT22;17168;49.164;9.060;2023-03-23T07:36:10;15.30;70.40
30379;DHT22;17168;49.164;9.060;2023-03-23T07:38:43;15.30;70.80
30379;DHT22;17168;49.164;9.060;2023-03-23T07:41:15;15.30;71.00
30379;DHT22;17168;49.164;9.060;2023-03-23T07:43:48;15.30;71.50
30379;DHT22;17168;49.164;9.060;2023-03-23T07:46:20;15.30;71.80
30379;DHT22;17168;49.164;9.060;2023-03-23T07:48:52;15.20;71.90
30379;DHT22;17168;49.164;9.060;2023-03-23T07:51:27;15.20;72.00
30379;DHT22;17168;49.164;9.060;2023-03-23T07:54:00;15.20;72.20
30379;DHT22;17168;49.164;9.060;2023-03-23T07:56:38;15.20;72.40
30379;DHT22;17168;49.164;9.060;2023-03-23T07:59:13;15.20;72.50
30379;DHT22;17168;49.164;9.060;2023-03-23T08:01:45;15.20;72.80
30379;DHT22;17168;49.164;9.060;2023-03-23T08:04:18;15.20;72.90
30379;DHT22;17168;49.164;9.060;2023-03-23T08:06:52;15.20;73.20
30379;DHT22;17168;49.164;9.060;2023-03-23T08:09:24;15.10;73.50
30379;DHT22;17168;49.164;9.060;2023-03-23T08:11:56;15.10;73.70
30379;DHT22;17168;49.164;9.060;2023-03-23T08:14:29;15.10;73.80
30379;DHT22;17168;49.164;9.060;2023-03-23T08:17:02;15.10;74.00
30379;DHT22;17168;49.164;9.060;2023-03-23T08:19:34;15.10;74.30
30379;DHT22;17168;49.164;9.060;2023-03-23T08:22:11;15.10;74.50
30379;DHT22;17168;49.164;9.060;2023-03-23T08:24:43;15.00;74.60
30379;DHT22;17168;49.164;9.060;2023-03-23T08:27:15;15.00;75.00
30379;DHT22;17168;49.164;9.060;2023-03-23T08:29:47;15.00;75.10
30379;DHT22;17168;49.164;9.060;2023-03-23T08:32:20;14.90;75.70
30379;DHT22;17168;49.164;9.060;2023-03-23T08:34:52;14.80;76.30
30379;DHT22;17168;49.164;9.060;2023-03-23T08:37:27;14.80;76.70
30379;DHT22;17168;49.164;9.060;2023-03-23T08:39:59;14.80;77.00
30379;DHT22;17168;49.164;9.060;2023-03-23T08:42:31;14.80;77.20
30379;DHT22;17168;49.164;9.060;2023-03-23T08:45:05;14.80;77.60
30379;DHT22;17168;49.164;9.060;2023-03-23T08:47:38;14.80;77.70
30379;DHT22;17168;49.164;9.060;2023-03-23T08:50:14;14.80;78.30
30379;DHT22;17168;49.164;9.060;2023-03-23T08:52:49;14.80;78.00
30379;DHT22;17168;49.164;9.060;2023-03-23T08:55:22;14.80;78.00
30379;DHT22;17168;49.164;9.060;2023-03-23T08:57:54;14.90;78.00
30379;DHT22;17168;49.164;9.060;2023-03-23T09:00:27;14.90;78.00
30379;DHT22;17168;49.164;9.060;2023-03-23T09:03:04;15.00;78.00
30379;DHT22;17168;49.164;9.060;2023-03-23T09:05:37;15.00;78.10
30379;DHT22;17168;49.164;9.060;2023-03-23T09:08:13;15.00;78.20
30379;DHT22;17168;49.164;9.060;2023-03-23T09:10:47;15.00;78.20
30379;DHT22;17168;49.164;9.060;2023-03-23T09:13:21;15.00;78.20
30379;DHT22;17168;49.164;9.060;2023-03-23T09:15:53;15.10;78.20
30379;DHT22;17168;49.164;9.060;2023-03-23T09:18:26;15.10;78.10
30379;DHT22;17168;49.164;9.060;2023-03-23T09:20:59;15.10;78.00
30379;DHT22;17168;49.164;9.060;2023-03-23T09:23:34;15.20;77.90
30379;DHT22;17168;49.164;9.060;2023-03-23T09:26:06;15.20;77.80
30379;DHT22;17168;49.164;9.060;2023-03-23T09:28:39;15.20;77.70
30379;DHT22;17168;49.164;9.060;2023-03-23T09:31:11;15.30;77.50
30379;DHT22;17168;49.164;9.060;2023-03-23T09:33:44;15.30;77.50
30379;DHT22;17168;49.164;9.060;2023-03-23T09:36:17;15.30;77.30
30379;DHT22;17168;49.164;9.060;2023-03-23T09:38:52;15.30;77.30
30379;DHT22;17168;49.164;9.060;2023-03-23T09:42:49;15.30;77.60
30379;DHT22;17168;49.164;9.060;2023-03-23T09:45:11;15.40;77.80
30379;DHT22;17168;49.164;9.060;2023-03-23T09:48:11;15.40;78.30
30379;DHT22;17168;49.164;9.060;2023-03-23T09:50:48;15.30;79.50
30379;DHT22;17168;49.164;9.060;2023-03-23T09:53:26;15.20;80.40
30379;DHT22;17168;49.164;9.060;2023-03-23T09:56:09;15.10;81.40
30379;DHT22;17168;49.164;9.060;2023-03-23T09:58:49;14.90;82.60
30379;DHT22;17168;49.164;9.060;2023-03-23T10:01:25;14.80;83.70
30379;DHT22;17168;49.164;9.060;2023-03-23T10:04:01;14.70;84.70
30379;DHT22;17168;49.164;9.060;2023-03-23T10:06:35;14.60;86.10
30379;DHT22;17168;49.164;9.060;2023-03-23T10:09:13;14.50;86.90
30379;DHT22;17168;49.164;9.060;2023-03-23T10:11:56;14.40;88.40
30379;DHT22;17168;49.164;9.060;2023-03-23T10:14:41;14.40;89.80
30379;DHT22;17168;49.164;9.060;2023-03-23T10:17:19;14.30;90.30
30379;DHT22;17168;49.164;9.060;2023-03-23T10:19:57;14.20;90.90
30379;DHT22;17168;49.164;9.060;2023-03-23T10:22:33;14.20;91.40
30379;DHT22;17168;49.164;9.060;2023-03-23T10:25:15;14.10;91.80
30379;DHT22;17168;49.164;9.060;2023-03-23T10:27:56;14.10;92.10
30379;DHT22;17168;49.164;9.060;2023-03-23T10:30:34;14.10;92.30
30379;DHT22;17168;49.164;9.060;2023-03-23T10:33:13;14.20;92.70
30379;DHT22;17168;49.164;9.060;2023-03-23T10:35:52;14.20;93.00
30379;DHT22;17168;49.164;9.060;2023-03-23T10:38:27;14.20;93.30
30379;DHT22;17168;49.164;9.060;2023-03-23T10:41:05;14.20;93.90
30379;DHT22;17168;49.164;9.060;2023-03-23T10:43:41;14.20;94.50
30379;DHT22;17168;49.164;9.060;2023-03-23T10:46:22;14.20;95.00
30379;DHT22;17168;49.164;9.060;2023-03-23T10:49:06;14.20;95.40
30379;DHT22;17168;49.164;9.060;2023-03-23T10:51:45;14.30;95.90
30379;DHT22;17168;49.164;9.060;2023-03-23T10:54:26;14.20;96.30
30379;DHT22;17168;49.164;9.060;2023-03-23T10:56:59;14.30;96.60
30379;DHT22;17168;49.164;9.060;2023-03-23T10:59:39;14.20;97.10
30379;DHT22;17168;49.164;9.060;2023-03-23T11:02:16;14.20;97.70
30379;DHT22;17168;49.164;9.060;2023-03-23T11:05:02;14.30;98.10
30379;DHT22;17168;49.164;9.060;2023-03-23T11:07:48;14.20;98.30
30379;DHT22;17168;49.164;9.060;2023-03-23T11:10:24;14.30;98.60
30379;DHT22;17168;49.164;9.060;2023-03-23T11:12:57;14.30;98.70
30379;DHT22;17168;49.164;9.060;2023-03-23T11:15:35;14.30;98.90
30379;DHT22;17168;49.164;9.060;2023-03-23T11:18:12;14.40;99.00
30379;DHT22;17168;49.164;9.060;2023-03-23T11:20:48;14.40;99.10
30379;DHT22;17168;49.164;9.060;2023-03-23T11:23:23;14.50;99.10
30379;DHT22;17168;49.164;9.060;2023-03-23T11:25:58;14.50;99.00
30379;DHT22;17168;49.164;9.060;2023-03-23T11:28:32;14.50;99.00
30379;DHT22;17168;49.164;9.060;2023-03-23T11:31:09;14.50;98.90
30379;DHT22;17168;49.164;9.060;2023-03-23T11:33:49;14.50;98.90
30379;DHT22;17168;49.164;9.060;2023-03-23T11:36:39;14.60;98.90
30379;DHT22;17168;49.164;9.060;2023-03-23T11:39:24;14.60;98.90
30379;DHT22;17168;49.164;9.060;2023-03-23T11:41:59;14.60;99.10
30379;DHT22;17168;49.164;9.060;2023-03-23T11:44:41;14.60;98.80
30379;DHT22;17168;49.164;9.060;2023-03-23T11:47:22;14.60;98.80
30379;DHT22;17168;49.164;9.060;2023-03-23T11:50:03;14.70;98.80
30379;DHT22;17168;49.164;9.060;2023-03-23T11:52:41;14.70;98.70
30379;DHT22;17168;49.164;9.060;2023-03-23T11:55:17;14.70;98.60
30379;DHT22;17168;49.164;9.060;2023-03-23T11:57:51;14.70;98.40
30379;DHT22;17168;49.164;9.060;2023-03-23T12:00:23;14.70;98.30
30379;DHT22;17168;49.164;9.060;2023-03-23T12:03:34;14.80;98.30
30379;DHT22;17168;49.164;9.060;2023-03-23T12:06:14;14.80;98.20
30379;DHT22;17168;49.164;9.060;2023-03-23T12:08:59;14.80;98.10
30379;DHT22;17168;49.164;9.060;2023-03-23T12:11:38;14.80;98.10
30379;DHT22;17168;49.164;9.060;2023-03-23T12:14:18;14.80;98.00
30379;DHT22;17168;49.164;9.060;2023-03-23T12:17:09;14.90;97.70
30379;DHT22;17168;49.164;9.060;2023-03-23T12:19:53;14.90;97.60
30379;DHT22;17168;49.164;9.060;2023-03-23T12:22:37;15.00;97.40
30379;DHT22;17168;49.164;9.060;2023-03-23T12:25:30;15.00;97.30
30379;DHT22;17168;49.164;9.060;2023-03-23T12:28:10;15.00;97.10
30379;DHT22;17168;49.164;9.060;2023-03-23T12:30:52;15.00;96.70
30379;DHT22;17168;49.164;9.060;2023-03-23T12:33:37;15.00;96.30
30379;DHT22;17168;49.164;9.060;2023-03-23T12:44:45;15.20;95.20
30379;DHT22;17168;49.164;9.060;2023-03-23T12:47:29;15.20;94.80
30379;DHT22;17168;49.164;9.060;2023-03-23T12:50:07;15.30;94.50
30379;DHT22;17168;49.164;9.060;2023-03-23T12:52:47;15.30;94.20
30379;DHT22;17168;49.164;9.060;2023-03-23T12:55:25;15.30;93.90
30379;DHT22;17168;49.164;9.060;2023-03-23T12:58:04;15.30;93.70
30379;DHT22;17168;49.164;9.060;2023-03-23T13:00:54;15.40;93.30
30379;DHT22;17168;49.164;9.060;2023-03-23T13:03:30;15.40;92.90
30379;DHT22;17168;49.164;9.060;2023-03-23T13:06:11;15.40;92.70
30379;DHT22;17168;49.164;9.060;2023-03-23T13:08:51;15.50;92.40
30379;DHT22;17168;49.164;9.060;2023-03-23T13:11:33;15.40;92.00
30379;DHT22;17168;49.164;9.060;2023-03-23T13:14:16;15.40;91.80
30379;DHT22;17168;49.164;9.060;2023-03-23T13:16:58;15.50;91.70
30379;DHT22;17168;49.164;9.060;2023-03-23T13:19:41;15.50;91.50
30379;DHT22;17168;49.164;9.060;2023-03-23T13:22:20;15.50;91.30
30379;DHT22;17168;49.164;9.060;2023-03-23T13:24:56;15.60;91.00
30379;DHT22;17168;49.164;9.060;2023-03-23T13:30:21;15.60;90.60
30379;DHT22;17168;49.164;9.060;2023-03-23T13:33:05;15.60;90.50
30379;DHT22;17168;49.164;9.060;2023-03-23T13:35:40;15.60;90.20
30379;DHT22;17168;49.164;9.060;2023-03-23T13:38:20;15.60;90.10
30379;DHT22;17168;49.164;9.060;2023-03-23T13:40:55;15.60;90.00
30379;DHT22;17168;49.164;9.060;2023-03-23T13:43:30;15.60;90.00
30379;DHT22;17168;49.164;9.060;2023-03-23T13:46:09;15.70;90.00
30379;DHT22;17168;49.164;9.060;2023-03-23T13:48:49;15.70;90.10
30379;DHT22;17168;49.164;9.060;2023-03-23T13:51:26;15.70;90.10
30379;DHT22;17168;49.164;9.060;2023-03-23T13:54:23;15.80;90.10
30379;DHT22;17168;49.164;9.060;2023-03-23T13:56:57;15.90;89.70
30379;DHT22;17168;49.164;9.060;2023-03-23T13:59:35;15.90;89.60
30379;DHT22;17168;49.164;9.060;2023-03-23T14:05:07;16.00;88.80
30379;DHT22;17168;49.164;9.060;2023-03-23T14:07:54;16.00;88.20
30379;DHT22;17168;49.164;9.060;2023-03-23T14:10:33;16.00;87.60
30379;DHT22;17168;49.164;9.060;2023-03-23T14:13:18;16.00;87.50
30379;DHT22;17168;49.164;9.060;2023-03-23T14:15:58;16.00;87.20
30379;DHT22;17168;49.164;9.060;2023-03-23T14:18:35;16.10;86.90
30379;DHT22;17168;49.164;9.060;2023-03-23T14:21:16;16.10;86.70
30379;DHT22;17168;49.164;9.060;2023-03-23T14:23:48;16.10;86.30
30379;DHT22;17168;49.164;9.060;2023-03-23T14:26:21;16.10;86.00
30379;DHT22;17168;49.164;9.060;2023-03-23T14:28:53;16.10;85.40
30379;DHT22;17168;49.164;9.060;2023-03-23T14:31:28;16.10;85.10
30379;DHT22;17168;49.164;9.060;2023-03-23T14:34:04;16.20;85.00
30379;DHT22;17168;49.164;9.060;2023-03-23T14:36:40;16.20;85.00
30379;DHT22;17168;49.164;9.060;2023-03-23T14:39:19;16.20;85.00
30379;DHT22;17168;49.164;9.060;2023-03-23T14:41:54;16.20;84.80
30379;DHT22;17168;49.164;9.060;2023-03-23T14:44:30;16.20;84.70
30379;DHT22;17168;49.164;9.060;2023-03-23T14:47:06;16.20;84.60
30379;DHT22;17168;49.164;9.060;2023-03-23T14:49:41;16.20;84.40
30379;DHT22;17168;49.164;9.060;2023-03-23T14:52:17;16.20;84.20
30379;DHT22;17168;49.164;9.060;2023-03-23T14:54:49;16.20;84.20
30379;DHT22;17168;49.164;9.060;2023-03-23T14:57:27;16.20;84.00
30379;DHT22;17168;49.164;9.060;2023-03-23T15:00:00;16.20;83.90
30379;DHT22;17168;49.164;9.060;2023-03-23T15:02:35;16.30;83.90
30379;DHT22;17168;49.164;9.060;2023-03-23T15:05:11;16.20;83.80
30379;DHT22;17168;49.164;9.060;2023-03-23T15:07:50;16.30;83.80
30379;DHT22;17168;49.164;9.060;2023-03-23T15:10:23;16.30;83.60
30379;DHT22;17168;49.164;9.060;2023-03-23T15:12:56;16.20;83.50
30379;DHT22;17168;49.164;9.060;2023-03-23T15:15:32;16.30;83.50
30379;DHT22;17168;49.164;9.060;2023-03-23T15:18:04;16.20;83.40
30379;DHT22;17168;49.164;9.060;2023-03-23T15:20:46;16.20;83.50
30379;DHT22;17168;49.164;9.060;2023-03-23T15:23:27;16.20;83.40
30379;DHT22;17168;49.164;9.060;2023-03-23T15:26:03;16.30;83.40
30379;DHT22;17168;49.164;9.060;2023-03-23T15:28:40;16.20;83.20
30379;DHT22;17168;49.164;9.060;2023-03-23T15:31:12;16.20;83.20
30379;DHT22;17168;49.164;9.060;2023-03-23T15:33:44;16.20;83.20
30379;DHT22;17168;49.164;9.060;2023-03-23T15:36:17;16.20;83.10
30379;DHT22;17168;49.164;9.060;2023-03-23T15:38:52;16.30;83.10
30379;DHT22;17168;49.164;9.060;2023-03-23T15:41:26;16.20;83.10
30379;DHT22;17168;49.164;9.060;2023-03-23T15:44:10;16.30;83.10
30379;DHT22;17168;49.164;9.060;2023-03-23T15:46:48;16.30;83.10
30379;DHT22;17168;49.164;9.060;2023-03-23T15:49:23;16.30;83.50
30379;DHT22;17168;49.164;9.060;2023-03-23T15:51:56;16.30;83.10
30379;DHT22;17168;49.164;9.060;2023-03-23T15:54:32;16.30;83.10
30379;DHT22;17168;49.164;9.060;2023-03-23T16:03:14;16.30;83.20
30379;DHT22;17168;49.164;9.060;2023-03-23T16:05:49;16.40;83.20
30379;DHT22;17168;49.164;9.060;2023-03-23T16:08:21;16.40;83.20
30379;DHT22;17168;49.164;9.060;2023-03-23T16:10:56;16.40;83.20
30379;DHT22;17168;49.164;9.060;2023-03-23T16:13:28;16.40;83.20
30379;DHT22;17168;49.164;9.060;2023-03-23T16:16:00;16.30;83.20
30379;DHT22;17168;49.164;9.060;2023-03-23T16:18:33;16.30;83.30
30379;DHT22;17168;49.164;9.060;2023-03-23T16:21:07;16.30;83.30
30379;DHT22;17168;49.164;9.060;2023-03-23T16:23:39;16.30;83.30
30379;DHT22;17168;49.164;9.060;2023-03-23T16:26:15;16.30;83.40
30379;DHT22;17168;49.164;9.060;2023-03-23T16:28:47;16.30;83.40
30379;DHT22;17168;49.164;9.060;2023-03-23T16:31:20;16.30;83.50
30379;DHT22;17168;49.164;9.060;2023-03-23T16:33:52;16.30;83.60
30379;DHT22;17168;49.164;9.060;2023-03-23T16:36:24;16.30;83.70
30379;DHT22;17168;49.164;9.060;2023-03-23T16:38:56;16.30;83.80
30379;DHT22;17168;49.164;9.060;2023-03-23T16:41:31;16.30;83.90
30379;DHT22;17168;49.164;9.060;2023-03-23T16:44:03;16.30;84.00
30379;DHT22;17168;49.164;9.060;2023-03-23T16:46:35;16.30;84.00
30379;DHT22;17168;49.164;9.060;2023-03-23T16:49:07;16.30;84.10
30379;DHT22;17168;49.164;9.060;2023-03-23T16:51:40;16.20;84.60
30379;DHT22;17168;49.164;9.060;2023-03-23T16:54:13;16.20;84.30
30379;DHT22;17168;49.164;9.060;2023-03-23T16:56:48;16.20;84.50
30379;DHT22;17168;49.164;9.060;2023-03-23T16:59:20;16.30;84.60
30379;DHT22;17168;49.164;9.060;2023-03-23T17:01:52;16.20;85.10
30379;DHT22;17168;49.164;9.060;2023-03-23T17:04:25;16.20;84.70
30379;DHT22;17168;49.164;9.060;2023-03-23T17:06:57;16.20;84.70
30379;DHT22;17168;49.164;9.060;2023-03-23T17:09:30;16.20;84.70